Terminal Aerodrome Forecast
Issued by NWS Dodge City, KS

Home | Current Version | Previous Version | Text Only | Print | Product List | Glossary On
Versions: 1 2 3 4 5 6 7 8 9 10 11 12 13 14 15 16
000
FTUS43 KDDC 240520
TAFDDC
TAF
KDDC 240520Z 2406/2506 16014G22KT P6SM BKN110 WS020/16040KT
     FM241000 16013KT P6SM VCSH OVC080 WS020/16040KT
     FM241200 17014G23KT P6SM -SHRA OVC080
     FM241800 17017G25KT P6SM VCTS OVC040CB=

USA.gov is the U.S. government's official web portal to all federal, state and local government web resources and services.